OIIK

Details ICAO OIIK
Name GHAZVIN
Region Iran
Timezone Asia/Tehran (UTC+3.5)
Plans Departing 8
Arriving 0
Stats Elevation 4,184 ft / 1,275 m (AMSL)
Location 36.240060° 50.047151°
Runways 1
Magnetic Variation 4.956° E
Sunrise 2017-12-12 03:43:00 UTC / 2017-12-12 07:13:00 Local
Sunset 2017-12-12 13:26:50 UTC / 2017-12-12 16:56:50 Local
Advertisement - Login to hide

Runways

ID Width Length Bearing (true) Bearing (mag) Surface Threshold Offset Overrun Length
10 131 ft / 40 m 3,663 ft / 1,117 m 99.95° 94.99° Asphalt 0 ft / 0 m 260 ft / 79 m
28 131 ft / 40 m 3,663 ft / 1,117 m 279.96° 275.00° Asphalt 0 ft / 0 m 70 ft / 21 m

Map

Weather


0- 5 10 15 20 25 30 35+ Temperature / ° C

Clouds and Precipitation
Forecast for 2017-12-12 06:00 UTC. Updated 4 minutes ago

Ground ~20,000 ft ~40,000 ft Winds

METAR

OIIK 120051Z 32004KT CAVOK 02/M04 Q1024

TAF

Not found

Frequencies

Tower 121.90 MHz INFO
Tower 118.30 MHz INFO
Warning: Do not use this data for real-world aviation or navigation. No guarantee of current accuracy is given.